Time;durP1;ratioP1;P1;durP2;ratioP2;P2;SDS_P1;SDS_P2;PMS_P1;PMS_P2;Temp;Humidity;BMP_temperature;BMP_pressure;BME280_temperature;BME280_humidity;BME280_pressure;Samples;Min_cycle;Max_cycle;Signal;HPM_P1;HPM_P2
2022/08/22 00:02:10;;;;;;;2.10;1.90;;;;;;;;;;5075858;28;20308;-83
2022/08/22 00:04:42;;;;;;;0.87;0.87;;;;;;;;;;5089565;28;20289;-83
2022/08/22 00:07:14;;;;;;;1.07;1.07;;;;;;;;;;5094631;28;20202;-82
2022/08/22 00:09:48;;;;;;;2.90;1.97;;;;;;;;;;5094275;28;20207;-82
2022/08/22 00:12:19;;;;;;;2.03;1.83;;;;;;;;;;5077781;28;20187;-83
2022/08/22 00:14:55;;;;;;;1.10;1.10;;;;;;;;;;5076113;28;20227;-82
2022/08/22 00:17:32;;;;;;;0.40;0.40;;;;;;;;;;5077368;28;20220;-82
2022/08/22 00:20:03;;;;;;;0.80;0.80;;;;;;;;;;5083751;28;20194;-82
2022/08/22 00:22:34;;;;;;;0.70;0.70;;;;;;;;;;5075714;28;20216;-82
2022/08/22 00:25:19;;;;;;;1.33;1.33;;;;;;;;;;5095144;28;20229;-82
2022/08/22 00:27:54;;;;;;;0.40;0.40;;;;;;;;;;5093629;28;20205;-82
2022/08/22 00:30:23;;;;;;;0.63;0.63;;;;;;;;;;5063723;28;20198;-82
2022/08/22 00:32:54;;;;;;;2.33;0.73;;;;;;;;;;5069689;28;20202;-82
2022/08/22 00:35:24;;;;;;;3.60;1.73;;;;;;;;;;5076296;28;20254;-82
2022/08/22 00:38:01;;;;;;;6.03;2.33;;;;;;;;;;5088176;28;20233;-82
2022/08/22 00:40:36;;;;;;;0.40;0.40;;;;;;;;;;5059845;28;20258;-82
2022/08/22 00:43:18;;;;;;;0.60;0.60;;;;;;;;;;5084948;28;20196;-82
2022/08/22 00:46:02;;;;;;;0.30;0.30;;;;;;;;;;5083707;28;20290;-82
2022/08/22 00:48:58;;;;;;;0.40;0.40;;;;;;;;;;5087065;28;20271;-82
2022/08/22 00:51:45;;;;;;;0.30;0.30;;;;;;;;;;5000399;28;20272;-82
2022/08/22 00:54:22;;;;;;;0.33;0.33;;;;;;;;;;5089259;28;20194;-82
2022/08/22 00:57:15;;;;;;;1.10;1.10;;;;;;;;;;5057186;28;20248;-82
2022/08/22 00:59:54;;;;;;;0.30;0.30;;;;;;;;;;5043271;28;20194;-82
2022/08/22 01:02:31;;;;;;;1.33;1.33;;;;;;;;;;5094282;28;20212;-82
2022/08/22 01:05:10;;;;;;;0.50;0.50;;;;;;;;;;5063510;28;20204;-81
2022/08/22 01:07:53;;;;;;;0.83;0.83;;;;;;;;;;5075286;28;20211;-81
2022/08/22 01:10:33;;;;;;;0.40;0.40;;;;;;;;;;5093159;28;20212;-81
2022/08/22 01:13:11;;;;;;;0.30;0.30;;;;;;;;;;5081932;28;20247;-82
2022/08/22 01:15:41;;;;;;;0.87;0.83;;;;;;;;;;5056236;28;20258;-81
2022/08/22 01:18:24;;;;;;;0.40;0.40;;;;;;;;;;5068647;28;20203;-81
2022/08/22 01:21:18;;;;;;;0.93;0.93;;;;;;;;;;5074431;28;20211;-81
2022/08/22 01:24:07;;;;;;;1.23;0.97;;;;;;;;;;5068006;28;20292;-81
2022/08/22 01:27:00;;;;;;;1.00;0.97;;;;;;;;;;5091107;28;20207;-81
2022/08/22 01:29:55;;;;;;;0.67;0.67;;;;;;;;;;5062837;28;20220;-81
2022/08/22 01:32:40;;;;;;;0.50;0.50;;;;;;;;;;5094090;28;20193;-81
2022/08/22 01:35:32;;;;;;;0.47;0.47;;;;;;;;;;5064468;28;20216;-81
2022/08/22 01:38:11;;;;;;;1.83;1.73;;;;;;;;;;4998866;28;20215;-81
2022/08/22 01:40:55;;;;;;;0.80;0.80;;;;;;;;;;5067238;28;20224;-81
2022/08/22 01:43:29;;;;;;;0.43;0.43;;;;;;;;;;5034560;28;20235;-81
2022/08/22 01:46:31;;;;;;;0.87;0.87;;;;;;;;;;5056358;28;20337;-82
2022/08/22 01:49:05;;;;;;;0.30;0.30;;;;;;;;;;5062078;28;20217;-82
2022/08/22 01:51:38;;;;;;;0.73;0.73;;;;;;;;;;5093450;28;20197;-81
2022/08/22 01:54:11;;;;;;;3.47;1.60;;;;;;;;;;5075319;28;20201;-81
2022/08/22 01:56:40;;;;;;;0.40;0.40;;;;;;;;;;5072439;28;20193;-81
2022/08/22 01:59:09;;;;;;;1.07;1.07;;;;;;;;;;5068636;28;20193;-82
2022/08/22 02:01:47;;;;;;;0.60;0.60;;;;;;;;;;5075877;28;20255;-81
2022/08/22 02:04:19;;;;;;;0.30;0.30;;;;;;;;;;5060187;28;20193;-81
2022/08/22 02:06:51;;;;;;;0.30;0.30;;;;;;;;;;5075812;28;20196;-81
2022/08/22 02:09:27;;;;;;;0.53;0.53;;;;;;;;;;5075150;28;20197;-82
2022/08/22 02:11:56;;;;;;;0.47;0.47;;;;;;;;;;5093506;28;20193;-81
2022/08/22 02:14:29;;;;;;;0.30;0.30;;;;;;;;;;5072329;28;20197;-82
2022/08/22 02:17:09;;;;;;;0.30;0.30;;;;;;;;;;5087002;28;20208;-82
2022/08/22 02:19:40;;;;;;;0.30;0.30;;;;;;;;;;5067605;28;20201;-81
2022/08/22 02:22:21;;;;;;;0.70;0.70;;;;;;;;;;5085727;28;20214;-81
2022/08/22 02:24:54;;;;;;;0.30;0.30;;;;;;;;;;5071200;28;20221;-81
2022/08/22 02:27:26;;;;;;;0.83;0.83;;;;;;;;;;5074141;28;20288;-81
2022/08/22 02:30:02;;;;;;;1.13;1.13;;;;;;;;;;5058434;28;20255;-81
2022/08/22 02:32:36;;;;;;;0.30;0.30;;;;;;;;;;5085133;28;20232;-81
2022/08/22 02:35:08;;;;;;;1.60;1.23;;;;;;;;;;5068562;28;20225;-81
2022/08/22 02:37:39;;;;;;;3.80;3.50;;;;;;;;;;5068475;28;20196;-81
2022/08/22 02:40:12;;;;;;;0.30;0.30;;;;;;;;;;5075256;28;20197;-81
2022/08/22 02:42:43;;;;;;;2.57;2.47;;;;;;;;;;5092076;28;20208;-81
2022/08/22 02:45:30;;;;;;;0.70;0.70;;;;;;;;;;5083014;28;20200;-82
2022/08/22 02:48:01;;;;;;;0.37;0.37;;;;;;;;;;5093418;28;20205;-82
2022/08/22 02:50:34;;;;;;;0.30;0.30;;;;;;;;;;5061662;28;20194;-81
2022/08/22 02:53:07;;;;;;;1.30;1.30;;;;;;;;;;5074921;28;20197;-81
2022/08/22 02:55:42;;;;;;;0.30;0.30;;;;;;;;;;5075185;28;20203;-81
2022/08/22 02:58:15;;;;;;;0.30;0.30;;;;;;;;;;5092910;28;20201;-82
2022/08/22 03:00:46;;;;;;;0.30;0.30;;;;;;;;;;5093052;28;20197;-81
2022/08/22 03:03:21;;;;;;;0.53;0.53;;;;;;;;;;5063890;28;20206;-82
2022/08/22 03:05:52;;;;;;;0.30;0.30;;;;;;;;;;5060889;28;20204;-81
2022/08/22 03:08:30;;;;;;;0.30;0.30;;;;;;;;;;5061928;28;20284;-82
2022/08/22 03:11:04;;;;;;;0.30;0.30;;;;;;;;;;5087326;28;20198;-81
2022/08/22 03:13:41;;;;;;;0.30;0.30;;;;;;;;;;5079072;28;20213;-82
2022/08/22 03:16:14;;;;;;;0.30;0.30;;;;;;;;;;5078114;28;20233;-82
2022/08/22 03:18:45;;;;;;;0.30;0.30;;;;;;;;;;5074908;28;20193;-82
2022/08/22 03:21:15;;;;;;;0.30;0.30;;;;;;;;;;5093839;28;20200;-82
2022/08/22 03:23:46;;;;;;;1.60;1.50;;;;;;;;;;5061934;28;20206;-82
2022/08/22 03:26:18;;;;;;;3.70;0.70;;;;;;;;;;5092322;28;20205;-82
2022/08/22 03:28:48;;;;;;;2.53;2.43;;;;;;;;;;5069958;28;20194;-82
2022/08/22 03:31:27;;;;;;;0.50;0.50;;;;;;;;;;5074282;28;20202;-82
2022/08/22 03:34:14;;;;;;;1.90;1.77;;;;;;;;;;5078708;28;20197;-83
2022/08/22 03:36:46;;;;;;;2.20;1.37;;;;;;;;;;5088527;28;20248;-82
2022/08/22 03:39:18;;;;;;;0.50;0.50;;;;;;;;;;5071651;28;20254;-82
2022/08/22 03:42:05;;;;;;;0.30;0.30;;;;;;;;;;5078356;28;20219;-82
2022/08/22 03:44:49;;;;;;;0.30;0.30;;;;;;;;;;5093370;28;20209;-82
2022/08/22 03:47:26;;;;;;;0.70;0.70;;;;;;;;;;5080706;28;20237;-82
2022/08/22 03:50:10;;;;;;;0.40;0.40;;;;;;;;;;5074996;28;20193;-82
2022/08/22 03:53:09;;;;;;;1.03;1.03;;;;;;;;;;5075594;28;20222;-82
2022/08/22 03:56:10;;;;;;;0.30;0.30;;;;;;;;;;5040211;28;20201;-82
2022/08/22 03:58:56;;;;;;;0.30;0.30;;;;;;;;;;5078092;28;20258;-82
2022/08/22 04:01:43;;;;;;;0.30;0.30;;;;;;;;;;5085376;28;20284;-82
2022/08/22 04:04:30;;;;;;;0.30;0.30;;;;;;;;;;5095730;28;20216;-82
2022/08/22 04:07:11;;;;;;;0.60;0.60;;;;;;;;;;5075852;28;20197;-82
2022/08/22 04:10:29;;;;;;;0.80;0.80;;;;;;;;;;5059172;28;20216;-82
2022/08/22 04:13:20;;;;;;;0.80;0.77;;;;;;;;;;5069302;28;20193;-82
2022/08/22 04:16:13;;;;;;;2.40;1.73;;;;;;;;;;5085150;28;20335;-82
2022/08/22 04:18:51;;;;;;;1.47;1.33;;;;;;;;;;5076008;28;20205;-82
2022/08/22 04:21:28;;;;;;;2.40;1.33;;;;;;;;;;5064516;28;20209;-82
2022/08/22 04:24:11;;;;;;;3.93;2.23;;;;;;;;;;5066272;28;20239;-82
2022/08/22 04:26:43;;;;;;;7.73;2.40;;;;;;;;;;5046842;28;20232;-82
2022/08/22 04:29:15;;;;;;;1.97;1.87;;;;;;;;;;5093111;28;20215;-82
2022/08/22 04:31:46;;;;;;;4.13;0.97;;;;;;;;;;5061930;28;20232;-81
2022/08/22 04:34:18;;;;;;;0.67;0.67;;;;;;;;;;5057909;28;20220;-81
2022/08/22 04:36:50;;;;;;;1.90;1.73;;;;;;;;;;5082934;28;20219;-81
2022/08/22 04:39:23;;;;;;;1.07;1.03;;;;;;;;;;5092887;28;20250;-81
2022/08/22 04:41:54;;;;;;;0.40;0.40;;;;;;;;;;5076266;28;20207;-82
2022/08/22 04:44:37;;;;;;;0.40;0.40;;;;;;;;;;5092784;28;20248;-82
2022/08/22 04:47:08;;;;;;;0.30;0.30;;;;;;;;;;5064972;28;20284;-83
2022/08/22 04:49:42;;;;;;;0.30;0.30;;;;;;;;;;5038040;28;20198;-82
2022/08/22 04:52:14;;;;;;;0.60;0.60;;;;;;;;;;5055153;28;20248;-82
2022/08/22 04:54:51;;;;;;;0.40;0.40;;;;;;;;;;5082477;28;20201;-82
2022/08/22 04:57:25;;;;;;;0.60;0.60;;;;;;;;;;5074087;28;20223;-82
2022/08/22 04:59:59;;;;;;;0.30;0.30;;;;;;;;;;5045871;28;20240;-82
2022/08/22 05:02:27;;;;;;;0.40;0.40;;;;;;;;;;5091024;28;20250;-82
2022/08/22 05:05:02;;;;;;;1.13;1.13;;;;;;;;;;5081961;28;20222;-82
2022/08/22 05:07:34;;;;;;;0.40;0.40;;;;;;;;;;5067831;28;20207;-82
2022/08/22 05:10:06;;;;;;;0.30;0.30;;;;;;;;;;5048521;28;20210;-82
2022/08/22 05:12:41;;;;;;;0.40;0.40;;;;;;;;;;5039815;28;20241;-82
2022/08/22 05:15:14;;;;;;;0.40;0.40;;;;;;;;;;5073272;28;20201;-82
2022/08/22 05:17:47;;;;;;;0.30;0.30;;;;;;;;;;5082635;28;20210;-81
2022/08/22 05:20:19;;;;;;;0.70;0.70;;;;;;;;;;5072892;28;20204;-82
2022/08/22 05:22:51;;;;;;;0.40;0.40;;;;;;;;;;5075358;28;20205;-82
2022/08/22 05:25:22;;;;;;;0.30;0.30;;;;;;;;;;5079666;28;20233;-82
2022/08/22 05:27:52;;;;;;;0.70;0.70;;;;;;;;;;5062247;28;20201;-81
2022/08/22 05:30:27;;;;;;;0.37;0.37;;;;;;;;;;5044770;28;20260;-81
2022/08/22 05:32:58;;;;;;;0.30;0.30;;;;;;;;;;5075826;28;20205;-82
2022/08/22 05:35:31;;;;;;;0.40;0.40;;;;;;;;;;5063489;28;20221;-82
2022/08/22 05:38:00;;;;;;;1.27;1.27;;;;;;;;;;5041063;28;20201;-82
2022/08/22 05:40:29;;;;;;;0.30;0.30;;;;;;;;;;5055392;28;20247;-82
2022/08/22 05:42:58;;;;;;;0.30;0.30;;;;;;;;;;5075448;28;20197;-82
2022/08/22 05:45:27;;;;;;;0.30;0.30;;;;;;;;;;5085556;28;20241;-82
2022/08/22 05:47:58;;;;;;;0.40;0.40;;;;;;;;;;5062576;28;20193;-82
2022/08/22 05:50:32;;;;;;;0.30;0.30;;;;;;;;;;5075522;28;20288;-83
2022/08/22 05:53:05;;;;;;;0.30;0.30;;;;;;;;;;5068643;28;20205;-82
2022/08/22 05:55:38;;;;;;;1.73;1.70;;;;;;;;;;5057935;28;20204;-82
2022/08/22 05:58:13;;;;;;;0.30;0.30;;;;;;;;;;5084005;28;20198;-83
2022/08/22 06:00:43;;;;;;;0.83;0.83;;;;;;;;;;5077556;28;20204;-83
2022/08/22 06:03:16;;;;;;;1.67;1.37;;;;;;;;;;5093088;28;20207;-82
2022/08/22 06:05:48;;;;;;;0.50;0.50;;;;;;;;;;5087636;28;20199;-83
2022/08/22 06:08:20;;;;;;;0.57;0.57;;;;;;;;;;5075747;28;20208;-83
2022/08/22 06:10:49;;;;;;;0.93;0.93;;;;;;;;;;5063951;28;20190;-82
2022/08/22 06:13:20;;;;;;;2.00;1.37;;;;;;;;;;5087433;28;20206;-82
2022/08/22 06:15:55;;;;;;;0.70;0.60;;;;;;;;;;5072535;28;20199;-82
2022/08/22 06:18:27;;;;;;;1.83;1.70;;;;;;;;;;5075401;28;20208;-81
2022/08/22 06:20:58;;;;;;;0.30;0.30;;;;;;;;;;5072495;28;20228;-82
2022/08/22 06:23:28;;;;;;;0.47;0.47;;;;;;;;;;5079354;28;20198;-81
2022/08/22 06:25:58;;;;;;;1.50;0.77;;;;;;;;;;5068010;28;20201;-81
2022/08/22 06:28:28;;;;;;;1.33;1.33;;;;;;;;;;5075075;28;20193;-81
2022/08/22 06:30:58;;;;;;;0.40;0.40;;;;;;;;;;5062430;28;20292;-80
2022/08/22 06:33:27;;;;;;;1.67;1.67;;;;;;;;;;5059402;28;20211;-81
2022/08/22 06:38:57;;;;;;;2.83;2.73;;;;;;;;;;5082975;28;20223;-82
2022/08/22 06:41:27;;;;;;;1.83;1.03;;;;;;;;;;5074116;28;20209;-82
2022/08/22 06:43:56;;;;;;;0.60;0.60;;;;;;;;;;5067412;28;20203;-81
2022/08/22 06:46:28;;;;;;;0.40;0.40;;;;;;;;;;5085979;28;20228;-81
2022/08/22 06:48:59;;;;;;;2.67;0.67;;;;;;;;;;5091450;28;20326;-82
2022/08/22 06:51:29;;;;;;;0.30;0.30;;;;;;;;;;5078475;28;20200;-81
2022/08/22 06:54:00;;;;;;;2.03;1.93;;;;;;;;;;5078142;28;20208;-81
2022/08/22 06:56:36;;;;;;;2.20;1.40;;;;;;;;;;5063384;28;20200;-81
2022/08/22 06:59:15;;;;;;;1.83;1.70;;;;;;;;;;5063722;28;20205;-82
2022/08/22 07:01:45;;;;;;;29.60;3.10;;;;;;;;;;5075431;28;20291;-81
2022/08/22 07:04:14;;;;;;;8.47;3.30;;;;;;;;;;5089394;28;20300;-81
2022/08/22 07:06:48;;;;;;;9.07;3.10;;;;;;;;;;5069087;28;20199;-82
2022/08/22 07:09:19;;;;;;;8.17;3.60;;;;;;;;;;5082760;28;20200;-81
2022/08/22 07:11:47;;;;;;;4.13;3.20;;;;;;;;;;5074864;28;20203;-81
2022/08/22 07:14:18;;;;;;;2.70;2.17;;;;;;;;;;5076240;28;20193;-81
2022/08/22 07:16:49;;;;;;;5.83;2.57;;;;;;;;;;5077716;28;20251;-81
2022/08/22 07:19:23;;;;;;;4.27;2.03;;;;;;;;;;5087081;28;20205;-82
2022/08/22 07:21:53;;;;;;;14.10;6.77;;;;;;;;;;5076044;28;20203;-81
2022/08/22 07:24:23;;;;;;;7.20;4.10;;;;;;;;;;5096274;28;20227;-82
2022/08/22 07:27:00;;;;;;;5.87;3.43;;;;;;;;;;5064803;28;20195;-82
2022/08/22 07:29:39;;;;;;;5.40;2.97;;;;;;;;;;5077188;28;20247;-81
2022/08/22 07:32:11;;;;;;;7.53;3.13;;;;;;;;;;5078138;28;20298;-81
2022/08/22 07:34:45;;;;;;;3.57;2.07;;;;;;;;;;5077496;28;20195;-81
2022/08/22 07:37:16;;;;;;;4.83;3.30;;;;;;;;;;5068118;28;20196;-80
2022/08/22 07:39:50;;;;;;;2.87;2.20;;;;;;;;;;5076758;28;20205;-82
2022/08/22 07:42:23;;;;;;;3.57;2.57;;;;;;;;;;5065150;28;20197;-81
2022/08/22 07:45:05;;;;;;;3.37;2.07;;;;;;;;;;5062762;28;20314;-81
2022/08/22 07:47:42;;;;;;;5.70;2.57;;;;;;;;;;5077502;28;20235;-81
2022/08/22 07:50:18;;;;;;;7.20;2.63;;;;;;;;;;5096067;28;20201;-81
2022/08/22 07:52:48;;;;;;;2.77;2.00;;;;;;;;;;5077562;28;20197;-82
2022/08/22 07:55:19;;;;;;;0.80;0.80;;;;;;;;;;5095039;28;20275;-81
2022/08/22 07:57:50;;;;;;;4.17;2.90;;;;;;;;;;5061026;28;20202;-81
2022/08/22 08:00:19;;;;;;;2.43;1.37;;;;;;;;;;5068535;28;20216;-82
2022/08/22 08:02:50;;;;;;;1.63;1.53;;;;;;;;;;5069433;28;20198;-82
2022/08/22 08:05:20;;;;;;;2.27;1.43;;;;;;;;;;5090516;28;20222;-82
2022/08/22 08:07:52;;;;;;;2.63;1.97;;;;;;;;;;5074380;28;20215;-82
2022/08/22 08:10:24;;;;;;;5.50;2.43;;;;;;;;;;5059841;28;20208;-82
2022/08/22 08:12:54;;;;;;;4.53;2.60;;;;;;;;;;5073797;28;20198;-81
2022/08/22 08:15:30;;;;;;;9.30;3.47;;;;;;;;;;5076896;28;20228;-82
2022/08/22 08:18:02;;;;;;;5.83;2.63;;;;;;;;;;5064844;28;20203;-81
2022/08/22 08:20:31;;;;;;;0.50;0.50;;;;;;;;;;5071552;28;20231;-82
2022/08/22 08:23:02;;;;;;;4.17;2.57;;;;;;;;;;5070786;28;20213;-82
2022/08/22 08:25:32;;;;;;;5.20;2.30;;;;;;;;;;5066033;28;20296;-82
2022/08/22 08:30:55;;;;;;;3.90;1.60;;;;;;;;;;5065730;28;20204;-82
2022/08/22 08:33:26;;;;;;;4.07;2.00;;;;;;;;;;5081635;28;20286;-82
2022/08/22 08:36:00;;;;;;;3.33;1.20;;;;;;;;;;5074017;28;20218;-82
2022/08/22 08:38:34;;;;;;;4.13;2.07;;;;;;;;;;5063756;28;20203;-80
2022/08/22 08:41:12;;;;;;;2.47;2.10;;;;;;;;;;5065998;28;20195;-80
2022/08/22 08:43:45;;;;;;;2.97;1.83;;;;;;;;;;5075314;28;20202;-83
2022/08/22 08:46:23;;;;;;;4.67;1.87;;;;;;;;;;5089281;28;20343;-83
2022/08/22 08:49:08;;;;;;;11.40;2.77;;;;;;;;;;5088323;28;20285;-80
2022/08/22 08:51:51;;;;;;;6.07;2.37;;;;;;;;;;5074450;28;20211;-80
2022/08/22 08:54:33;;;;;;;5.33;2.47;;;;;;;;;;5073411;28;20209;-80
2022/08/22 08:57:10;;;;;;;2.10;1.90;;;;;;;;;;5056569;28;20207;-80
2022/08/22 08:59:44;;;;;;;1.80;1.70;;;;;;;;;;5057084;28;20223;-80
2022/08/22 09:02:29;;;;;;;4.17;2.63;;;;;;;;;;5090419;28;20283;-80
2022/08/22 09:05:36;;;;;;;5.57;2.10;;;;;;;;;;5060981;28;20220;-80
2022/08/22 09:08:25;;;;;;;2.87;2.20;;;;;;;;;;5067808;28;20199;-80
2022/08/22 09:11:09;;;;;;;5.27;2.07;;;;;;;;;;5082409;28;20220;-82
2022/08/22 09:13:47;;;;;;;3.83;2.33;;;;;;;;;;5063078;28;20215;-81
2022/08/22 09:16:23;;;;;;;4.83;2.17;;;;;;;;;;5076238;28;20194;-81
2022/08/22 09:19:01;;;;;;;8.70;3.20;;;;;;;;;;5062808;28;20254;-82
2022/08/22 09:21:44;;;;;;;6.83;1.80;;;;;;;;;;5074555;28;20230;-82
2022/08/22 09:24:37;;;;;;;4.50;1.60;;;;;;;;;;5093967;28;20196;-81
2022/08/22 09:27:12;;;;;;;14.60;3.17;;;;;;;;;;5075848;28;20218;-81
2022/08/22 09:29:55;;;;;;;5.87;2.27;;;;;;;;;;5152076;27;20541;-80
2022/08/22 09:32:33;;;;;;;5.60;1.87;;;;;;;;;;5151454;27;20197;-80
2022/08/22 09:35:04;;;;;;;3.53;1.97;;;;;;;;;;5145590;27;20227;-81
2022/08/22 09:37:43;;;;;;;5.50;2.87;;;;;;;;;;5131334;28;20211;-81
2022/08/22 09:40:14;;;;;;;5.63;2.10;;;;;;;;;;5130685;28;20195;-81
2022/08/22 09:42:51;;;;;;;7.80;2.47;;;;;;;;;;5131034;27;20197;-81
2022/08/22 09:45:37;;;;;;;4.50;2.83;;;;;;;;;;5130077;28;20268;-81
2022/08/22 09:48:10;;;;;;;6.03;2.40;;;;;;;;;;5116812;28;20223;-81
2022/08/22 09:50:45;;;;;;;2.83;2.23;;;;;;;;;;5130022;28;20198;-81
2022/08/22 09:53:32;;;;;;;2.70;1.70;;;;;;;;;;5130194;28;20205;-81
2022/08/22 09:56:04;;;;;;;2.30;1.50;;;;;;;;;;5129954;28;20194;-80
2022/08/22 09:58:44;;;;;;;2.47;1.37;;;;;;;;;;5129732;28;20199;-81
2022/08/22 10:01:17;;;;;;;7.37;2.40;;;;;;;;;;5129965;28;20229;-80
2022/08/22 10:04:03;;;;;;;5.03;2.17;;;;;;;;;;5129780;28;20196;-81
2022/08/22 10:06:42;;;;;;;4.73;3.93;;;;;;;;;;5129488;28;20228;-81
2022/08/22 10:09:13;;;;;;;5.17;1.63;;;;;;;;;;5117619;28;20267;-81
2022/08/22 10:11:46;;;;;;;2.37;1.30;;;;;;;;;;5130724;28;20285;-81
2022/08/22 10:14:17;;;;;;;3.53;1.80;;;;;;;;;;5129788;28;20201;-81
2022/08/22 10:17:01;;;;;;;0.90;0.70;;;;;;;;;;5147017;27;20203;-80
2022/08/22 10:19:32;;;;;;;7.20;1.30;;;;;;;;;;5129801;28;20263;-81
2022/08/22 10:22:21;;;;;;;6.20;1.40;;;;;;;;;;5129591;28;20201;-80
2022/08/22 10:24:58;;;;;;;5.33;2.13;;;;;;;;;;5129318;28;20236;-81
2022/08/22 10:27:44;;;;;;;5.10;2.23;;;;;;;;;;5129486;28;20205;-80
2022/08/22 10:30:19;;;;;;;6.37;2.60;;;;;;;;;;5133817;27;20197;-81
2022/08/22 10:32:52;;;;;;;3.17;2.10;;;;;;;;;;5127621;28;20288;-81
2022/08/22 10:35:27;;;;;;;2.97;1.63;;;;;;;;;;5135666;27;20330;-81
2022/08/22 10:38:07;;;;;;;4.17;1.87;;;;;;;;;;5129076;28;20292;-81
2022/08/22 10:40:44;;;;;;;9.73;3.43;;;;;;;;;;5118853;28;20201;-80
2022/08/22 10:43:17;;;;;;;7.37;1.87;;;;;;;;;;5112524;27;20213;-81
2022/08/22 10:45:47;;;;;;;5.77;2.37;;;;;;;;;;5110528;28;20224;-81
2022/08/22 10:48:23;;;;;;;5.40;1.73;;;;;;;;;;5115480;28;20193;-80
2022/08/22 10:50:55;;;;;;;0.63;0.63;;;;;;;;;;5115429;28;20225;-81
2022/08/22 10:53:33;;;;;;;1.23;1.17;;;;;;;;;;5115460;28;20207;-80
2022/08/22 10:56:11;;;;;;;5.07;2.63;;;;;;;;;;5115280;28;20192;-81
2022/08/22 10:58:42;;;;;;;1.40;1.17;;;;;;;;;;5115322;28;20203;-81
2022/08/22 11:01:18;;;;;;;2.27;2.07;;;;;;;;;;5115097;28;20206;-81
2022/08/22 11:08:06;;;;;;;6.43;2.57;;;;;;;;;;5100984;28;20202;-81
2022/08/22 11:10:52;;;;;;;2.70;2.27;;;;;;;;;;5113663;28;20206;-81
2022/08/22 11:13:27;;;;;;;4.67;2.03;;;;;;;;;;5114882;28;20199;-81
2022/08/22 11:19:04;;;;;;;3.57;1.50;;;;;;;;;;5108441;28;20211;-82
2022/08/22 11:22:00;;;;;;;2.83;1.03;;;;;;;;;;5114659;28;20252;-82
2022/08/22 11:24:55;;;;;;;3.77;2.63;;;;;;;;;;5114601;28;20302;-82
2022/08/22 11:27:46;;;;;;;1.73;1.63;;;;;;;;;;5103525;28;20203;-81
2022/08/22 11:30:42;;;;;;;6.33;1.63;;;;;;;;;;5102278;28;20222;-82
2022/08/22 11:33:38;;;;;;;6.93;2.03;;;;;;;;;;5131539;27;20230;-82
2022/08/22 11:36:38;;;;;;;3.90;1.60;;;;;;;;;;5114455;28;20267;-82
2022/08/22 11:39:17;;;;;;;1.90;1.50;;;;;;;;;;5114403;28;20245;-82
2022/08/22 11:41:56;;;;;;;5.53;3.03;;;;;;;;;;5111360;27;20215;-82
2022/08/22 11:44:34;;;;;;;0.97;0.97;;;;;;;;;;5128724;27;20207;-82
2022/08/22 11:47:22;;;;;;;0.23;0.23;;;;;;;;;;5114418;28;20271;-82
2022/08/22 11:49:59;;;;;;;2.73;2.03;;;;;;;;;;5113896;28;20222;-82
2022/08/22 11:52:33;;;;;;;1.03;1.00;;;;;;;;;;5113140;28;20203;-82
2022/08/22 11:55:10;;;;;;;4.97;2.63;;;;;;;;;;5114008;28;20199;-82
2022/08/22 11:57:42;;;;;;;6.53;2.13;;;;;;;;;;5114124;28;20217;-82
2022/08/22 12:00:19;;;;;;;4.00;1.90;;;;;;;;;;5113809;28;20290;-82
2022/08/22 12:02:58;;;;;;;3.67;1.70;;;;;;;;;;5101884;28;20207;-82
2022/08/22 12:05:35;;;;;;;8.40;1.83;;;;;;;;;;5113646;28;20200;-82
2022/08/22 12:08:09;;;;;;;1.77;0.90;;;;;;;;;;5113934;28;20207;-82
2022/08/22 12:10:47;;;;;;;3.27;2.47;;;;;;;;;;5113559;28;20216;-82
2022/08/22 12:13:25;;;;;;;2.37;0.73;;;;;;;;;;5113462;28;20203;-82
2022/08/22 12:16:08;;;;;;;2.13;1.00;;;;;;;;;;5113610;28;20271;-82
2022/08/22 12:18:50;;;;;;;1.00;0.93;;;;;;;;;;5113598;28;20249;-82
2022/08/22 12:21:33;;;;;;;3.17;2.07;;;;;;;;;;5113467;28;20200;-82
2022/08/22 12:30:41;;;;;;;9.10;1.97;;;;;;;;;;5101476;28;20273;-82
2022/08/22 12:33:53;;;;;;;3.80;1.17;;;;;;;;;;5113626;28;20203;-82
2022/08/22 12:39:58;;;;;;;1.90;1.17;;;;;;;;;;5113228;28;20195;-82
2022/08/22 12:43:05;;;;;;;4.53;2.97;;;;;;;;;;5112739;28;20203;-81
2022/08/22 12:45:46;;;;;;;0.90;0.90;;;;;;;;;;5105407;28;20253;-81
2022/08/22 12:48:27;;;;;;;2.63;2.53;;;;;;;;;;5113152;28;20204;-81
2022/08/22 12:51:04;;;;;;;3.90;2.37;;;;;;;;;;5113079;28;20213;-81
2022/08/22 12:54:09;;;;;;;1.87;1.30;;;;;;;;;;5113186;28;20257;-81
2022/08/22 12:56:47;;;;;;;1.63;1.53;;;;;;;;;;5041909;28;20200;-81
2022/08/22 12:59:25;;;;;;;3.83;2.00;;;;;;;;;;5112765;28;20200;-81
2022/08/22 13:02:01;;;;;;;8.97;3.30;;;;;;;;;;5112768;28;20216;-81
2022/08/22 13:04:36;;;;;;;4.00;1.77;;;;;;;;;;5111767;28;20197;-80
2022/08/22 13:07:20;;;;;;;0.50;0.50;;;;;;;;;;5112009;28;20222;-81
2022/08/22 13:09:56;;;;;;;3.87;1.97;;;;;;;;;;5112496;28;20218;-81
2022/08/22 13:12:33;;;;;;;0.53;0.53;;;;;;;;;;5100545;28;20192;-81
2022/08/22 13:15:07;;;;;;;2.53;1.50;;;;;;;;;;5112862;28;20227;-81
2022/08/22 13:17:38;;;;;;;3.70;2.27;;;;;;;;;;5130037;27;20296;-81
2022/08/22 13:20:12;;;;;;;1.67;1.10;;;;;;;;;;5129470;27;20189;-81
2022/08/22 13:22:41;;;;;;;5.03;2.20;;;;;;;;;;5129633;27;20202;-81
2022/08/22 13:25:18;;;;;;;4.77;2.30;;;;;;;;;;5129504;27;20206;-81
2022/08/22 13:27:56;;;;;;;3.73;1.60;;;;;;;;;;5113597;28;20244;-81
2022/08/22 13:30:33;;;;;;;0.87;0.77;;;;;;;;;;5112372;28;20225;-81
2022/08/22 13:33:08;;;;;;;1.67;1.57;;;;;;;;;;5112410;28;20199;-81
2022/08/22 13:35:40;;;;;;;3.60;1.90;;;;;;;;;;5112483;28;20217;-82
2022/08/22 13:38:17;;;;;;;0.83;0.67;;;;;;;;;;5111795;28;20239;-82
2022/08/22 13:40:54;;;;;;;1.47;1.37;;;;;;;;;;5112318;28;20198;-82
2022/08/22 13:43:26;;;;;;;1.37;1.37;;;;;;;;;;5112476;28;20198;-82
2022/08/22 13:45:56;;;;;;;2.70;1.80;;;;;;;;;;5112261;28;20211;-81
2022/08/22 13:48:30;;;;;;;2.13;1.67;;;;;;;;;;5112284;28;20198;-82
2022/08/22 13:51:02;;;;;;;5.83;2.40;;;;;;;;;;5129342;28;20298;-82
2022/08/22 13:53:37;;;;;;;5.00;1.37;;;;;;;;;;5113549;28;20203;-82
2022/08/22 13:56:10;;;;;;;3.83;3.47;;;;;;;;;;5112416;28;20220;-82
2022/08/22 13:58:46;;;;;;;3.13;1.07;;;;;;;;;;5113201;28;20214;-82
2022/08/22 14:01:36;;;;;;;3.10;1.33;;;;;;;;;;5112416;28;20199;-82
2022/08/22 14:04:12;;;;;;;1.90;1.20;;;;;;;;;;5108918;28;20205;-82
2022/08/22 14:07:18;;;;;;;0.70;0.70;;;;;;;;;;5112178;28;20210;-82
2022/08/22 14:09:54;;;;;;;5.53;2.37;;;;;;;;;;5111833;28;20207;-82
2022/08/22 14:12:24;;;;;;;16.87;1.90;;;;;;;;;;5099411;28;20205;-82
2022/08/22 14:14:58;;;;;;;0.30;0.30;;;;;;;;;;5112962;28;20248;-82
2022/08/22 14:17:31;;;;;;;2.17;1.43;;;;;;;;;;5116874;28;20197;-82
2022/08/22 14:20:02;;;;;;;5.60;3.47;;;;;;;;;;5115711;28;20191;-82
2022/08/22 14:22:35;;;;;;;2.90;2.60;;;;;;;;;;5115627;28;20325;-82
2022/08/22 14:25:06;;;;;;;0.70;0.70;;;;;;;;;;5115996;28;20194;-82
2022/08/22 14:27:38;;;;;;;1.37;1.37;;;;;;;;;;5115525;28;20214;-82
2022/08/22 14:30:14;;;;;;;3.13;1.23;;;;;;;;;;5110241;28;20206;-82
2022/08/22 14:32:48;;;;;;;0.50;0.50;;;;;;;;;;5110890;28;20210;-82
2022/08/22 14:35:19;;;;;;;0.87;0.87;;;;;;;;;;5132968;27;20227;-81
2022/08/22 14:38:14;;;;;;;1.00;1.00;;;;;;;;;;5115181;28;20289;-82
2022/08/22 14:40:45;;;;;;;4.70;1.30;;;;;;;;;;5115372;28;20206;-82
2022/08/22 14:43:18;;;;;;;1.60;1.50;;;;;;;;;;5115577;28;20207;-82
2022/08/22 14:45:57;;;;;;;3.93;2.40;;;;;;;;;;5115113;28;20204;-82
2022/08/22 14:48:31;;;;;;;4.40;1.90;;;;;;;;;;5115588;28;20212;-82
2022/08/22 14:51:06;;;;;;;2.03;1.30;;;;;;;;;;5114945;28;20248;-82
2022/08/22 14:53:37;;;;;;;4.73;2.03;;;;;;;;;;5115546;28;20224;-82
2022/08/22 14:56:08;;;;;;;2.53;1.97;;;;;;;;;;5114758;28;20200;-82
2022/08/22 14:58:46;;;;;;;1.53;1.43;;;;;;;;;;5115150;28;20299;-82
2022/08/22 15:01:19;;;;;;;2.90;1.40;;;;;;;;;;5115442;28;20185;-81
2022/08/22 15:03:53;;;;;;;6.63;1.63;;;;;;;;;;5114944;28;20210;-82
2022/08/22 15:06:31;;;;;;;0.30;0.30;;;;;;;;;;5114912;28;20198;-82
2022/08/22 15:08:59;;;;;;;4.33;1.93;;;;;;;;;;5114889;28;20230;-81
2022/08/22 15:11:36;;;;;;;3.00;1.80;;;;;;;;;;5115017;28;20215;-82
2022/08/22 15:14:11;;;;;;;1.50;1.40;;;;;;;;;;5114888;28;20224;-81
2022/08/22 15:16:43;;;;;;;0.90;0.90;;;;;;;;;;5114657;28;20268;-82
2022/08/22 15:19:21;;;;;;;6.77;2.53;;;;;;;;;;5114616;28;20208;-82
2022/08/22 15:21:50;;;;;;;9.03;2.53;;;;;;;;;;5114564;28;20227;-83
2022/08/22 15:24:19;;;;;;;0.50;0.50;;;;;;;;;;5114620;28;20213;-82
2022/08/22 15:26:50;;;;;;;6.20;2.13;;;;;;;;;;5115653;28;20225;-83
2022/08/22 15:29:24;;;;;;;4.23;2.20;;;;;;;;;;5115403;28;20285;-82
2022/08/22 15:31:56;;;;;;;1.73;1.60;;;;;;;;;;5103317;28;20236;-82
2022/08/22 15:34:31;;;;;;;0.83;0.57;;;;;;;;;;5112901;28;20226;-82
2022/08/22 15:37:14;;;;;;;1.80;1.70;;;;;;;;;;5114252;28;20207;-82
2022/08/22 15:39:58;;;;;;;6.70;1.67;;;;;;;;;;5113024;28;20200;-82
2022/08/22 15:42:32;;;;;;;0.77;0.77;;;;;;;;;;5115349;28;20281;-82
2022/08/22 15:45:01;;;;;;;8.60;1.50;;;;;;;;;;5115027;28;20205;-82
2022/08/22 15:47:35;;;;;;;4.43;2.13;;;;;;;;;;5114079;28;20249;-82
2022/08/22 15:50:07;;;;;;;0.73;0.73;;;;;;;;;;5114374;28;20209;-82
2022/08/22 15:52:56;;;;;;;3.20;1.57;;;;;;;;;;5114206;28;20208;-82
2022/08/22 15:55:34;;;;;;;5.77;2.70;;;;;;;;;;5113461;28;20197;-82
2022/08/22 15:58:06;;;;;;;5.60;2.30;;;;;;;;;;5103888;28;20257;-82
2022/08/22 16:00:36;;;;;;;3.90;2.20;;;;;;;;;;5113734;28;20199;-82
2022/08/22 16:03:15;;;;;;;2.93;1.70;;;;;;;;;;5114040;28;20248;-82